Accueil
METAR-TAF:

METAR-TAF

Aéroports :

Cranfield, Angleterre

latitude: 52-04N, longitude: 000-37W, altitude: 111 m

Observation

Le bulletin a été fait il y a 2 heures et 21 minutes, à 16:20 UTC
Vent 6 kt de sud/sud-ouest
Température 13°C
Humidité 77%
Pression 1016 hPa
Visibilité 10 km ou plus
pas de nuages en-dessous de 1500 mètres et pas de cumulonimbus.

METAR: EGTC 171620Z 21006KT CAVOK 13/09 Q1016

Heure: 19:41 (18:41 UTC)

Prévision

Le bulletin a été fait il y a 4 heures et 41 minutes, à 14:00 UTC
Prévision valable du 17 à 15 UTC au 17 à 18 UTC
Vent 12 kt de sud-ouest
Visibilité 10 km ou plus
Quelques nuages à une hauteur de 3500 ft
Temporairement
du 17 à 16 UTC au 17 à 18 UTC
Visibilité: 9000 m
faibles averses de pluie

TAF: EGTC 171400Z 1715/1718 23012KT 9999 FEW035 TEMPO 1716/1718 9000 -SHRA

Observations et prévisions météorologiques de plus de 4000 aéroports (messages METAR et TAF).

Les stations disponibles sont représentées par des disques jaunes et rouges sur la carte.

Passer la souris dessus pour voir le nom de la station.

Cliquer dessus pour voir les observations et prévisions météorologiques.

Pour changer de carte: cliquez sur les boutons verts avec une croix noire pour zoomer, sur le bouton vert avec un tiret pour effectuer un zoom arrière, ou sur les flèches vertes pour les cartes adjacentes.


METAR-TAF: